createdAt,value
2017-06-11T00:00:00.405Z,1007.73
2017-06-11T00:02:25.025Z,1007.71
2017-06-11T00:04:49.147Z,1007.7
2017-06-11T00:07:13.224Z,1007.73
2017-06-11T00:09:20.490Z,1007.71
2017-06-11T00:11:44.612Z,1007.69
2017-06-11T00:14:08.684Z,1007.64
2017-06-11T00:16:10.569Z,1007.66
2017-06-11T00:18:34.724Z,1007.63
2017-06-11T00:20:58.807Z,1007.62
2017-06-11T00:23:14.451Z,1007.61
2017-06-11T00:25:30.033Z,1007.58
2017-06-11T00:27:54.152Z,1007.56
2017-06-11T00:30:18.241Z,1007.54
2017-06-11T00:32:42.328Z,1007.46
2017-06-11T00:35:06.426Z,1007.46
2017-06-11T00:37:30.587Z,1007.36
2017-06-11T00:39:54.678Z,1007.42
2017-06-11T00:42:18.748Z,1007.33
2017-06-11T00:44:42.845Z,1007.31
2017-06-11T00:47:06.925Z,1007.31
2017-06-11T00:49:30.997Z,1007.33
2017-06-11T00:51:55.091Z,1007.34
2017-06-11T00:54:19.162Z,1007.36
2017-06-11T00:56:17.979Z,1007.29
2017-06-11T00:58:42.020Z,1007.28
2017-06-11T01:01:06.117Z,1007.23
2017-06-11T01:03:30.196Z,1007.24
2017-06-11T01:05:54.276Z,1007.25
2017-06-11T01:08:18.352Z,1007.26
2017-06-11T01:10:42.449Z,1007.23
2017-06-11T01:12:58.087Z,1007.24
2017-06-11T01:15:22.100Z,1007.23
2017-06-11T01:17:46.180Z,1007.21
2017-06-11T01:20:10.270Z,1007.23
2017-06-11T01:22:34.352Z,1007.27
2017-06-11T01:24:58.424Z,1007.32
2017-06-11T01:27:22.507Z,1007.34
2017-06-11T01:29:46.589Z,1007.34
2017-06-11T01:32:02.256Z,1007.36
2017-06-11T01:34:09.430Z,1007.38
2017-06-11T01:36:33.447Z,1007.4
2017-06-11T01:38:49.029Z,1007.43
2017-06-11T01:41:04.680Z,1007.42
2017-06-11T01:43:20.293Z,1007.35
2017-06-11T01:45:44.374Z,1007.36
2017-06-11T01:47:59.950Z,1007.33
2017-06-11T01:50:24.043Z,1007.29
2017-06-11T01:52:33.951Z,1007.27
2017-06-11T01:54:49.569Z,1007.25
2017-06-11T01:57:13.539Z,1007.23
2017-06-11T01:59:29.090Z,1007.16
2017-06-11T02:01:44.673Z,1007.11
2017-06-11T02:04:00.281Z,1007.13
2017-06-11T02:06:24.157Z,1007.16
2017-06-11T02:08:48.149Z,1007.15
2017-06-11T02:14:38.438Z,1007.09
2017-06-11T02:17:02.442Z,1007.05
2017-06-11T02:19:26.423Z,1007.06
2017-06-11T02:21:50.404Z,1007.05
2017-06-11T02:24:05.989Z,1007.04
2017-06-11T02:26:29.967Z,1007.02
2017-06-11T02:28:53.944Z,1007.01
2017-06-11T02:31:09.493Z,1007
2017-06-11T02:33:33.507Z,1006.99
2017-06-11T02:35:57.495Z,1006.95
2017-06-11T02:38:21.466Z,1006.93
2017-06-11T02:40:22.818Z,1006.95
2017-06-11T02:42:38.382Z,1006.91
2017-06-11T02:44:53.984Z,1006.95
2017-06-11T02:47:17.959Z,1006.94
2017-06-11T02:49:41.932Z,1006.94
2017-06-11T02:52:05.914Z,1006.96
2017-06-11T02:54:29.891Z,1006.95
2017-06-11T02:56:53.878Z,1006.93
2017-06-11T02:58:55.722Z,1006.95
2017-06-11T03:01:17.264Z,1006.93
2017-06-11T03:03:41.239Z,1006.94
2017-06-11T03:06:05.218Z,1006.91
2017-06-11T03:08:29.201Z,1006.91
2017-06-11T03:10:53.191Z,1006.91
2017-06-11T03:13:08.719Z,1006.84
2017-06-11T03:15:24.240Z,1006.85
2017-06-11T03:17:31.386Z,1006.84
2017-06-11T03:19:55.298Z,1006.88
2017-06-11T03:22:10.774Z,1006.91
2017-06-11T03:24:34.761Z,1006.91
2017-06-11T03:26:33.415Z,1006.88
2017-06-11T03:28:57.328Z,1006.89
2017-06-11T03:31:21.312Z,1006.88
2017-06-11T03:33:45.282Z,1006.85
2017-06-11T03:36:00.761Z,1006.86
2017-06-11T03:38:24.738Z,1006.86
2017-06-11T03:40:26.575Z,1006.86
2017-06-11T03:42:50.581Z,1006.88
2017-06-11T03:45:14.453Z,1006.87
2017-06-11T03:47:30.016Z,1006.89
2017-06-11T03:49:54.030Z,1006.9
2017-06-11T03:52:09.602Z,1006.83
2017-06-11T03:54:33.580Z,1006.84
2017-06-11T03:56:49.133Z,1006.84
2017-06-11T03:59:04.721Z,1006.8
2017-06-11T04:01:20.225Z,1006.78
2017-06-11T04:03:35.777Z,1006.77
2017-06-11T04:05:59.690Z,1006.8
2017-06-11T04:08:23.657Z,1006.78
2017-06-11T04:10:47.646Z,1006.79
2017-06-11T04:13:11.631Z,1006.81
2017-06-11T04:15:13.469Z,1006.83
2017-06-11T04:17:37.417Z,1006.83
2017-06-11T04:20:01.382Z,1006.86
2017-06-11T04:22:25.342Z,1006.99
2017-06-11T04:24:49.557Z,1006.91
2017-06-11T04:27:13.867Z,1006.95
2017-06-11T04:29:29.887Z,1006.97
2017-06-11T04:31:54.512Z,1007
2017-06-11T04:34:19.351Z,1006.94
2017-06-11T04:36:44.376Z,1006.96
2017-06-11T04:39:09.623Z,1006.96
2017-06-11T04:41:26.465Z,1006.96
2017-06-11T04:43:51.995Z,1007.01
2017-06-11T04:46:09.105Z,1006.97
2017-06-11T04:48:26.383Z,1006.97
2017-06-11T04:50:52.220Z,1006.97
2017-06-11T04:53:18.171Z,1006.99
2017-06-11T04:55:35.696Z,1007.03
2017-06-11T04:57:53.238Z,1007.06
2017-06-11T05:00:19.384Z,1007.05
2017-06-11T05:02:45.638Z,1007.06
2017-06-11T05:05:11.983Z,1007.04
2017-06-11T05:07:13.979Z,1007.06
2017-06-11T05:09:31.915Z,1007.04
2017-06-11T05:11:58.457Z,1007.04
2017-06-11T05:14:07.830Z,1007.04
2017-06-11T05:16:34.452Z,1007.06
2017-06-11T05:18:37.193Z,1007.09
2017-06-11T05:21:04.001Z,1007.14
2017-06-11T05:23:30.864Z,1007.08
2017-06-11T05:25:49.115Z,1007.05
2017-06-11T05:28:07.474Z,1007.04
2017-06-11T05:30:25.932Z,1007.07
2017-06-11T05:32:28.556Z,1007.09
2017-06-11T05:34:55.796Z,1007.09
2017-06-11T05:37:23.065Z,1007.12
2017-06-11T05:39:41.734Z,1007.03
2017-06-11T05:42:09.095Z,1007.05
2017-06-11T05:44:36.461Z,1007.02
2017-06-11T05:47:03.946Z,1007.02
2017-06-11T05:49:22.806Z,1006.98
2017-06-11T05:51:50.374Z,1006.99
2017-06-11T05:54:09.340Z,1007
2017-06-11T05:56:36.905Z,1007.03
2017-06-11T05:59:04.580Z,1007.06
2017-06-11T06:01:23.657Z,1007.06
2017-06-11T06:03:51.431Z,1007.09
2017-06-11T06:06:19.208Z,1007.08
2017-06-11T06:08:47.092Z,1007.07
2017-06-11T06:11:14.972Z,1007.11
2017-06-11T06:13:42.953Z,1007.09
2017-06-11T06:16:10.931Z,1007.08
2017-06-11T06:18:39.020Z,1007.11
2017-06-11T06:21:07.092Z,1007.06
2017-06-11T06:23:35.181Z,1007.07
2017-06-11T06:26:03.256Z,1007.06
2017-06-11T06:28:31.374Z,1006.96
2017-06-11T06:30:59.625Z,1006.97
2017-06-11T06:33:27.915Z,1006.98
2017-06-11T06:35:56.210Z,1006.96
2017-06-11T06:38:24.479Z,1006.92
2017-06-11T06:40:36.184Z,1006.88
2017-06-11T06:43:04.433Z,1006.89
2017-06-11T06:45:16.131Z,1006.88
2017-06-11T06:47:35.443Z,1006.89
2017-06-11T06:50:03.179Z,1006.88
2017-06-11T06:52:30.809Z,1006.89
2017-06-11T06:54:58.126Z,1006.96
2017-06-11T06:57:25.252Z,1006.81
2017-06-11T06:59:26.469Z,1006.79
2017-06-11T07:01:44.685Z,1006.81
2017-06-11T07:03:55.893Z,1006.75
2017-06-11T07:06:22.465Z,1006.77
2017-06-11T07:08:40.386Z,1006.74
2017-06-11T07:11:06.811Z,1006.71
2017-06-11T07:13:33.139Z,1006.74
2017-06-11T07:15:59.472Z,1006.68
2017-06-11T07:18:25.805Z,1006.69
2017-06-11T07:20:52.031Z,1006.67
2017-06-11T07:23:18.266Z,1006.68
2017-06-11T07:25:35.934Z,1006.73
2017-06-11T07:28:02.230Z,1006.73
2017-06-11T07:30:28.571Z,1006.71
2017-06-11T07:32:54.903Z,1006.66
2017-06-11T07:35:12.634Z,1006.65
2017-06-11T07:37:38.858Z,1006.66
2017-06-11T07:39:56.595Z,1006.65
2017-06-11T07:42:22.825Z,1006.6
2017-06-11T07:44:49.059Z,1006.66
2017-06-11T07:47:15.226Z,1006.64
2017-06-11T07:49:41.420Z,1006.58
2017-06-11T07:52:07.649Z,1006.59
2017-06-11T07:54:25.320Z,1006.52
2017-06-11T07:56:51.618Z,1006.48
2017-06-11T07:59:09.290Z,1006.47
2017-06-11T08:01:35.598Z,1006.49
2017-06-11T08:04:01.938Z,1006.49
2017-06-11T08:06:19.704Z,1006.52
2017-06-11T08:08:46.126Z,1006.46
2017-06-11T08:11:12.560Z,1006.37
2017-06-11T08:13:23.218Z,1006.36
2017-06-11T08:15:41.088Z,1006.4
2017-06-11T08:17:43.500Z,1006.4
2017-06-11T08:20:10.900Z,1006.35
2017-06-11T08:22:37.323Z,1006.32
2017-06-11T08:24:55.162Z,1006.2
2017-06-11T08:27:21.605Z,1006.22
2017-06-11T08:29:48.047Z,1006.19
2017-06-11T08:32:14.461Z,1006.17
2017-06-11T08:34:40.915Z,1006.1
2017-06-11T08:37:07.363Z,1006.16
2017-06-11T08:39:25.967Z,1006.07
2017-06-11T08:41:52.430Z,1006.06
2017-06-11T08:44:18.766Z,1006.06
2017-06-11T08:46:45.089Z,1006.03
2017-06-11T08:49:11.320Z,1006.05
2017-06-11T08:51:37.663Z,1006.06
2017-06-11T08:53:55.412Z,1005.99
2017-06-11T08:56:21.735Z,1005.94
2017-06-11T08:58:48.064Z,1005.92
2017-06-11T09:01:14.402Z,1005.92
2017-06-11T09:03:40.737Z,1005.85
2017-06-11T09:05:58.509Z,1005.89
2017-06-11T09:08:16.358Z,1005.9
2017-06-11T09:10:42.812Z,1005.91
2017-06-11T09:13:09.187Z,1005.87
2017-06-11T09:15:35.636Z,1005.83
2017-06-11T09:17:53.498Z,1005.84
2017-06-11T09:20:19.897Z,1005.75
2017-06-11T09:22:46.245Z,1005.75
2017-06-11T09:24:48.651Z,1005.68
2017-06-11T09:27:06.545Z,1005.64
2017-06-11T09:29:32.880Z,1005.62
2017-06-11T09:31:59.315Z,1005.57
2017-06-11T09:34:25.656Z,1005.52
2017-06-11T09:36:52.087Z,1005.49
2017-06-11T09:39:18.420Z,1005.48
2017-06-11T09:41:44.745Z,1005.47
2017-06-11T09:44:02.516Z,1005.44
2017-06-11T09:46:20.207Z,1005.37
2017-06-11T09:48:46.427Z,1005.34
2017-06-11T09:51:04.057Z,1005.24
2017-06-11T09:53:30.286Z,1005.23
2017-06-11T09:55:24.218Z,1005.17
2017-06-11T09:57:41.841Z,1005.16
2017-06-11T10:00:08.017Z,1005.16
2017-06-11T10:02:34.143Z,1005.16
2017-06-11T10:05:00.257Z,1005.11
2017-06-11T10:07:26.390Z,1005
2017-06-11T10:09:43.919Z,1004.95
2017-06-11T10:12:09.943Z,1004.92
2017-06-11T10:14:27.477Z,1004.86
2017-06-11T10:16:53.486Z,1004.86
2017-06-11T10:19:10.911Z,1004.86
2017-06-11T10:21:28.332Z,1004.85
2017-06-11T10:23:45.709Z,1004.8
2017-06-11T10:26:03.055Z,1004.78
2017-06-11T10:28:28.880Z,1004.77
2017-06-11T10:30:54.703Z,1004.77
2017-06-11T10:33:20.528Z,1004.77
2017-06-11T10:35:46.342Z,1004.78
2017-06-11T10:37:55.094Z,1004.78
2017-06-11T10:40:20.881Z,1004.76
2017-06-11T10:42:46.594Z,1004.7
2017-06-11T10:45:03.817Z,1004.64
2017-06-11T10:47:29.532Z,1004.57
2017-06-11T10:49:55.256Z,1004.53
2017-06-11T10:52:12.365Z,1004.47
2017-06-11T10:54:38.089Z,1004.42
2017-06-11T10:57:03.814Z,1004.37
2017-06-11T10:59:29.422Z,1004.31
2017-06-11T11:01:55.031Z,1004.27
2017-06-11T11:04:20.660Z,1004.19
2017-06-11T11:06:46.269Z,1004.16
2017-06-11T11:09:11.881Z,1004.11
2017-06-11T11:11:14.193Z,1004.06
2017-06-11T11:13:31.245Z,1004.01
2017-06-11T11:15:39.773Z,1004.01
2017-06-11T11:17:56.779Z,1003.98
2017-06-11T11:20:13.811Z,1003.94
2017-06-11T11:22:22.205Z,1003.87
2017-06-11T11:24:39.131Z,1003.83
2017-06-11T11:27:04.655Z,1003.8
2017-06-11T11:29:30.160Z,1003.79
2017-06-11T11:31:55.681Z,1003.75
2017-06-11T11:34:21.192Z,1003.69
2017-06-11T11:36:46.620Z,1003.65
2017-06-11T11:39:03.606Z,1003.67
2017-06-11T11:41:29.130Z,1003.63
2017-06-11T11:43:54.547Z,1003.65
2017-06-11T11:45:56.757Z,1003.58
2017-06-11T11:48:13.726Z,1003.51
2017-06-11T11:50:39.141Z,1003.53
2017-06-11T11:52:56.002Z,1003.49
2017-06-11T11:55:21.358Z,1003.47
2017-06-11T11:57:46.774Z,1003.41
2017-06-11T12:00:12.187Z,1003.31
2017-06-11T12:02:14.401Z,1003.37
2017-06-11T12:04:31.266Z,1003.37
2017-06-11T12:06:48.183Z,1003.32
2017-06-11T12:09:13.593Z,1003.26
2017-06-11T12:11:30.493Z,1003.24
2017-06-11T12:13:47.400Z,1003.22
2017-06-11T12:16:04.234Z,1003.19
2017-06-11T12:18:14.575Z,1003.22
2017-06-11T12:20:39.997Z,1003.13
2017-06-11T12:22:56.836Z,1003.12
2017-06-11T12:25:13.723Z,1003.1
2017-06-11T12:27:39.141Z,1003.11
2017-06-11T12:30:04.558Z,1003.07
2017-06-11T12:32:30.319Z,1003.07
2017-06-11T12:34:32.176Z,1002.99
2017-06-11T12:36:57.582Z,1002.96
2017-06-11T12:39:22.957Z,1002.91
2017-06-11T12:41:40.810Z,1002.88
2017-06-11T12:44:06.211Z,1002.84
2017-06-11T12:46:23.124Z,1002.81
2017-06-11T12:48:25.332Z,1002.81
2017-06-11T12:50:51.758Z,1002.79
2017-06-11T12:53:17.141Z,1002.74
2017-06-11T12:55:33.937Z,1002.74
2017-06-11T12:57:59.256Z,1002.71
2017-06-11T13:00:16.048Z,1002.65
2017-06-11T13:02:41.371Z,1002.67
2017-06-11T13:05:06.710Z,1002.62
2017-06-11T13:07:15.003Z,1002.62
2017-06-11T13:09:08.289Z,1002.68
2017-06-11T13:11:09.940Z,1002.59
2017-06-11T13:13:35.335Z,1002.53
2017-06-11T13:16:00.744Z,1002.53
2017-06-11T13:18:26.048Z,1002.54
2017-06-11T13:20:51.358Z,1002.48
2017-06-11T13:23:16.678Z,1002.43
2017-06-11T13:25:42.097Z,1002.44
2017-06-11T13:28:07.498Z,1002.41
2017-06-11T13:30:32.917Z,1002.47
2017-06-11T13:32:49.832Z,1002.4
2017-06-11T13:35:15.142Z,1002.35
2017-06-11T13:37:40.450Z,1002.31
2017-06-11T13:40:05.872Z,1002.31
2017-06-11T13:42:31.179Z,1002.27
2017-06-11T13:44:56.488Z,1002.25
2017-06-11T13:47:21.803Z,1002.19
2017-06-11T13:49:47.208Z,1002.16
2017-06-11T13:52:12.527Z,1002.2
2017-06-11T13:54:37.934Z,1002.15
2017-06-11T13:57:03.347Z,1002.13
2017-06-11T13:59:28.766Z,1002.12
2017-06-11T14:01:54.180Z,1002.15
2017-06-11T14:04:19.600Z,1002.13
2017-06-11T14:06:36.509Z,1002.09
2017-06-11T14:09:01.918Z,1002.06
2017-06-11T14:11:27.321Z,1002
2017-06-11T14:13:38.061Z,1002.02
2017-06-11T14:15:39.737Z,1002.02
2017-06-11T14:18:05.174Z,1001.94
2017-06-11T14:20:30.587Z,1001.97
2017-06-11T14:22:55.994Z,1001.97
2017-06-11T14:25:12.823Z,1001.97
2017-06-11T14:27:38.216Z,1001.94
2017-06-11T14:30:03.632Z,1001.94
2017-06-11T14:32:20.436Z,1001.86
2017-06-11T14:34:45.852Z,1001.74
2017-06-11T14:37:11.166Z,1001.73
2017-06-11T14:39:36.474Z,1001.72
2017-06-11T14:41:53.423Z,1001.66
2017-06-11T14:44:18.811Z,1001.68
2017-06-11T14:46:44.116Z,1001.68
2017-06-11T14:49:09.526Z,1001.64
2017-06-11T14:51:34.937Z,1001.6
2017-06-11T14:54:00.355Z,1001.65
2017-06-11T14:56:17.144Z,1001.62
2017-06-11T14:58:42.482Z,1001.65
2017-06-11T15:00:59.281Z,1001.65
2017-06-11T15:03:24.584Z,1001.66
2017-06-11T15:05:41.417Z,1001.63
2017-06-11T15:08:06.704Z,1001.61
2017-06-11T15:10:32.020Z,1001.62
2017-06-11T15:12:48.716Z,1001.62
2017-06-11T15:15:13.942Z,1001.63
2017-06-11T15:17:39.246Z,1001.67
2017-06-11T15:19:41.430Z,1001.62
2017-06-11T15:22:06.838Z,1001.6
2017-06-11T15:24:09.059Z,1001.61
2017-06-11T15:26:34.420Z,1001.53
2017-06-11T15:28:59.730Z,1001.56
2017-06-11T15:32:52.948Z,1001.51
2017-06-11T15:35:09.816Z,1001.52
2017-06-11T15:37:26.620Z,1001.44
2017-06-11T15:39:51.941Z,1001.41
2017-06-11T15:42:17.261Z,1001.42
2017-06-11T15:44:28.060Z,1001.47
2017-06-11T15:46:53.443Z,1001.35
2017-06-11T15:49:18.859Z,1001.27
2017-06-11T15:51:44.270Z,1001.31
2017-06-11T15:54:02.088Z,1001.25
2017-06-11T15:56:27.520Z,1001.22
2017-06-11T15:58:52.921Z,1001.17
2017-06-11T16:01:09.731Z,1001.13
2017-06-11T16:03:35.158Z,1001.08
2017-06-11T16:06:00.567Z,1001.08
2017-06-11T16:08:02.792Z,1001.09
2017-06-11T16:10:17.568Z,1001.08
2017-06-11T16:12:43.926Z,1001.04
2017-06-11T16:15:09.346Z,1001.05
2017-06-11T16:17:26.244Z,1001.02
2017-06-11T16:19:51.559Z,1001.07
2017-06-11T16:22:17.906Z,1001.02
2017-06-11T16:24:34.708Z,1001.03
2017-06-11T16:27:00.023Z,1000.97
2017-06-11T16:29:25.452Z,1000.97
2017-06-11T16:31:50.754Z,1000.9
2017-06-11T16:34:16.053Z,1000.9
2017-06-11T16:36:41.360Z,1000.89
2017-06-11T16:39:06.664Z,1000.83
2017-06-11T16:41:31.986Z,1000.83
2017-06-11T16:43:40.303Z,1000.75
2017-06-11T16:46:05.613Z,1000.77
2017-06-11T16:48:30.920Z,1000.74
2017-06-11T16:50:56.232Z,1000.7
2017-06-11T16:53:21.536Z,1000.62
2017-06-11T16:55:46.855Z,1000.57
2017-06-11T16:58:12.169Z,1000.56
2017-06-11T17:00:37.496Z,1000.58
2017-06-11T17:03:02.792Z,1000.56
2017-06-11T17:05:28.099Z,1000.53
2017-06-11T17:07:30.361Z,1000.48
2017-06-11T17:09:40.629Z,1000.45
2017-06-11T17:12:05.927Z,1000.41
2017-06-11T17:14:31.236Z,1000.45
2017-06-11T17:16:48.047Z,1000.46
2017-06-11T17:19:13.247Z,1000.46
2017-06-11T17:21:38.457Z,1000.51
2017-06-11T17:24:03.764Z,1000.5
2017-06-11T17:26:28.978Z,1000.45
2017-06-11T17:28:54.184Z,1000.41
2017-06-11T17:31:10.883Z,1000.3
2017-06-11T17:33:27.599Z,1000.23
2017-06-11T17:35:52.813Z,1000.26
2017-06-11T17:38:18.016Z,1000.32
2017-06-11T17:40:43.224Z,1000.29
2017-06-11T17:43:08.430Z,1000.36
2017-06-11T17:45:33.634Z,1000.39
2017-06-11T17:47:58.837Z,1000.37
2017-06-11T17:50:24.054Z,1000.28
2017-06-11T17:52:40.770Z,1000.26
2017-06-11T17:54:57.479Z,1000.21
2017-06-11T17:57:07.730Z,1000.23
2017-06-11T17:59:32.935Z,1000.25
2017-06-11T18:01:58.137Z,1000.27
2017-06-11T18:04:23.238Z,1000.25
2017-06-11T18:06:39.847Z,1000.27
2017-06-11T18:08:50.656Z,1000.32
2017-06-11T18:11:15.836Z,1000.36
2017-06-11T18:13:40.936Z,1000.44
2017-06-11T18:16:06.030Z,1000.44
2017-06-11T18:18:31.289Z,1000.41
2017-06-11T18:20:56.441Z,1000.42
2017-06-11T18:23:21.568Z,1000.42
2017-06-11T18:25:46.673Z,1000.38
2017-06-11T18:27:48.405Z,1000.43
2017-06-11T18:29:50.494Z,1000.42
2017-06-11T18:32:07.087Z,1000.42
2017-06-11T18:34:32.181Z,1000.44
2017-06-11T18:36:57.186Z,1000.39
2017-06-11T18:39:13.691Z,1000.36
2017-06-11T18:41:38.693Z,1000.42
2017-06-11T18:44:03.628Z,1000.46
2017-06-11T18:46:28.711Z,1000.44
2017-06-11T18:48:45.213Z,1000.47
2017-06-11T18:51:10.314Z,1000.51
2017-06-11T18:53:35.485Z,1000.55
2017-06-11T18:56:00.529Z,1000.54
2017-06-11T18:58:17.027Z,1000.51
2017-06-11T19:00:42.027Z,1000.5
2017-06-11T19:03:07.038Z,1000.47
2017-06-11T19:05:23.543Z,1000.47
2017-06-11T19:07:48.522Z,1000.46
2017-06-11T19:10:13.544Z,1000.51
2017-06-11T19:12:38.442Z,1000.57
2017-06-11T19:15:03.445Z,1000.61
2017-06-11T19:17:28.339Z,1000.69
2017-06-11T19:19:53.243Z,1000.7
2017-06-11T19:22:18.152Z,1000.71
2017-06-11T19:24:26.166Z,1000.66
2017-06-11T19:26:51.038Z,1000.63
2017-06-11T19:29:15.903Z,1000.57
2017-06-11T19:31:40.858Z,1000.59
2017-06-11T19:33:57.268Z,1000.61
2017-06-11T19:36:22.151Z,1000.6
2017-06-11T19:38:47.053Z,1000.55
2017-06-11T19:41:11.954Z,1000.58
2017-06-11T19:43:28.316Z,1000.53
2017-06-11T19:45:44.776Z,1000.6
2017-06-11T19:48:09.659Z,1000.59
2017-06-11T19:50:34.566Z,1000.65
2017-06-11T19:52:50.981Z,1000.71
2017-06-11T19:55:15.967Z,1000.72
2017-06-11T19:57:40.856Z,1000.76
2017-06-11T20:00:05.762Z,1000.71
2017-06-11T20:02:30.631Z,1000.72
2017-06-11T20:04:46.951Z,1000.73
2017-06-11T20:07:11.857Z,1000.76
2017-06-11T20:09:36.767Z,1000.82
2017-06-11T20:11:53.087Z,1000.86
2017-06-11T20:14:17.943Z,1000.94
2017-06-11T20:16:34.276Z,1000.92
2017-06-11T20:18:50.682Z,1000.89
2017-06-11T20:21:15.570Z,1000.87
2017-06-11T20:23:25.767Z,1000.86
2017-06-11T20:25:50.617Z,1000.9
2017-06-11T20:28:07.026Z,1000.88
2017-06-11T20:30:31.808Z,1000.9
2017-06-11T20:32:48.131Z,1000.87
2017-06-11T20:35:12.881Z,1000.84
2017-06-11T20:37:29.223Z,1000.83
2017-06-11T20:39:54.006Z,1000.8
2017-06-11T20:42:18.696Z,1000.81
2017-06-11T20:44:34.988Z,1000.85
2017-06-11T20:46:45.686Z,1000.89
2017-06-11T20:49:10.570Z,1000.89
2017-06-11T20:51:35.373Z,1000.89
2017-06-11T20:54:00.101Z,1000.9
2017-06-11T20:56:24.857Z,1000.98
2017-06-11T20:58:49.676Z,1000.91
2017-06-11T21:01:14.465Z,1000.9
2017-06-11T21:03:39.247Z,1000.91
2017-06-11T21:06:03.942Z,1000.91
2017-06-11T21:08:28.747Z,1000.89
2017-06-11T21:10:45.070Z,1000.9
2017-06-11T21:13:09.857Z,1000.9
2017-06-11T21:15:34.636Z,1000.91
2017-06-11T21:17:59.331Z,1000.93
2017-06-11T21:20:24.031Z,1000.91
2017-06-11T21:22:48.718Z,1000.91
2017-06-11T21:25:13.533Z,1000.95
2017-06-11T21:27:38.213Z,1000.97
2017-06-11T21:29:54.406Z,1000.93
2017-06-11T21:32:19.123Z,1000.92
2017-06-11T21:34:43.814Z,1000.91
2017-06-11T21:37:08.501Z,1000.94
2017-06-11T21:39:33.202Z,1000.95
2017-06-11T21:41:57.891Z,1000.97
2017-06-11T21:44:14.114Z,1000.92
2017-06-11T21:46:38.789Z,1000.94
2017-06-11T21:49:03.486Z,1001
2017-06-11T21:51:28.096Z,1000.95
2017-06-11T21:53:52.783Z,1000.97
2017-06-11T21:56:17.465Z,1000.96
2017-06-11T21:58:42.060Z,1000.93
2017-06-11T22:01:06.763Z,1000.89
2017-06-11T22:03:31.457Z,1000.96
2017-06-11T22:05:56.151Z,1000.97
2017-06-11T22:08:12.357Z,1000.99
2017-06-11T22:10:36.938Z,1000.95
2017-06-11T22:13:01.642Z,1000.95
2017-06-11T22:15:26.341Z,1000.95
2017-06-11T22:17:51.035Z,1000.98
2017-06-11T22:20:07.328Z,1000.99
2017-06-11T22:22:32.029Z,1000.98
2017-06-11T22:24:56.721Z,1000.99
2017-06-11T22:27:21.414Z,1000.96
2017-06-11T22:29:37.648Z,1000.98
2017-06-11T22:31:53.918Z,1001.03
2017-06-11T22:34:18.616Z,1001.01
2017-06-11T22:36:43.309Z,1001.02
2017-06-11T22:39:07.895Z,1001.04
2017-06-11T22:41:24.137Z,1001.06
2017-06-11T22:43:48.792Z,1001.08
2017-06-11T22:46:05.018Z,1001.09
2017-06-11T22:48:21.190Z,1001.1
2017-06-11T22:50:45.882Z,1001.09
2017-06-11T22:52:55.975Z,1001.14
2017-06-11T22:55:20.642Z,1001.19
2017-06-11T22:57:45.327Z,1001.24
2017-06-11T23:00:01.524Z,1001.22
2017-06-11T23:02:17.646Z,1001.19
2017-06-11T23:04:42.318Z,1001.21
2017-06-11T23:07:07.014Z,1001.26
2017-06-11T23:09:31.711Z,1001.27
2017-06-11T23:11:56.414Z,1001.25
2017-06-11T23:14:20.992Z,1001.22
2017-06-11T23:16:45.691Z,1001.26
2017-06-11T23:19:10.385Z,1001.24
2017-06-11T23:21:34.985Z,1001.23
2017-06-11T23:23:51.176Z,1001.21
2017-06-11T23:26:07.306Z,1001.21
2017-06-11T23:28:31.970Z,1001.17
2017-06-11T23:30:56.568Z,1001.18
2017-06-11T23:33:12.655Z,1001.23
2017-06-11T23:35:37.243Z,1001.24
2017-06-11T23:38:01.833Z,1001.24
2017-06-11T23:40:26.426Z,1001.26
2017-06-11T23:42:51.023Z,1001.27
2017-06-11T23:45:15.517Z,1001.27
2017-06-11T23:47:40.108Z,1001.23
2017-06-11T23:50:04.703Z,1001.22
2017-06-11T23:52:29.306Z,1001.25
2017-06-11T23:54:53.792Z,1001.23
2017-06-11T23:57:09.881Z,1001.21
2017-06-11T23:59:34.472Z,1001.26
